Time;durP1;ratioP1;P1;durP2;ratioP2;P2;SDS_P1;SDS_P2;PMS_P1;PMS_P2;Temp;Humidity;BMP_temperature;BMP_pressure;BME280_temperature;BME280_humidity;BME280_pressure;Samples;Min_cycle;Max_cycle;Signal;HPM_P1;HPM_P2
2021/08/09 00:01:13;;;;;;;2.90;1.60;;;;;;;;;;5116706;28;20051;-82
2021/08/09 00:03:40;;;;;;;3.60;1.80;;;;;;;;;;5101827;28;20575;-84
2021/08/09 00:06:07;;;;;;;3.90;1.70;;;;;;;;;;5100917;28;20076;-82
2021/08/09 00:08:35;;;;;;;3.75;1.52;;;;;;;;;;5100373;28;20052;-81
2021/08/09 00:11:02;;;;;;;3.58;1.73;;;;;;;;;;5103757;28;20058;-82
2021/08/09 00:13:29;;;;;;;3.38;1.85;;;;;;;;;;5105089;28;20051;-82
2021/08/09 00:15:57;;;;;;;4.20;1.45;;;;;;;;;;5100993;28;20481;-82
2021/08/09 00:18:25;;;;;;;3.30;1.70;;;;;;;;;;5101188;28;20044;-82
2021/08/09 00:20:52;;;;;;;2.78;1.40;;;;;;;;;;5103050;28;20059;-81
2021/08/09 00:23:20;;;;;;;3.20;1.83;;;;;;;;;;5104954;28;20048;-81
2021/08/09 00:25:49;;;;;;;3.05;1.70;;;;;;;;;;5099793;28;20074;-82
2021/08/09 00:28:16;;;;;;;2.97;1.60;;;;;;;;;;5100499;28;20493;-82
2021/08/09 00:30:43;;;;;;;3.20;1.58;;;;;;;;;;5100910;28;20063;-82
2021/08/09 00:33:10;;;;;;;3.30;1.60;;;;;;;;;;5101006;28;20044;-83
2021/08/09 00:35:37;;;;;;;5.03;1.50;;;;;;;;;;5099371;28;20413;-82
2021/08/09 00:38:04;;;;;;;3.55;1.40;;;;;;;;;;5099502;28;20109;-81
2021/08/09 00:40:31;;;;;;;2.42;1.50;;;;;;;;;;5099542;28;20059;-82
2021/08/09 00:42:59;;;;;;;3.30;1.50;;;;;;;;;;5099308;28;20079;-83
2021/08/09 00:45:27;;;;;;;5.60;1.92;;;;;;;;;;5099890;28;20059;-83
2021/08/09 00:47:54;;;;;;;2.50;1.40;;;;;;;;;;5099303;28;20052;-83
2021/08/09 00:50:21;;;;;;;4.85;1.30;;;;;;;;;;5099039;28;20136;-82
2021/08/09 00:52:48;;;;;;;2.13;1.20;;;;;;;;;;5100076;28;20048;-83
2021/08/09 00:55:15;;;;;;;3.33;1.40;;;;;;;;;;5103180;28;20036;-81
2021/08/09 00:57:42;;;;;;;2.80;1.30;;;;;;;;;;5115403;28;20032;-81
2021/08/09 01:00:11;;;;;;;3.53;1.48;;;;;;;;;;5112426;28;20105;-82
2021/08/09 01:02:38;;;;;;;2.40;1.42;;;;;;;;;;5092454;28;20052;-83
2021/08/09 01:05:07;;;;;;;2.60;1.63;;;;;;;;;;5085794;28;20041;-82
2021/08/09 01:07:39;;;;;;;2.78;1.73;;;;;;;;;;5084906;28;20048;-81
2021/08/09 01:10:11;;;;;;;2.78;1.40;;;;;;;;;;5085950;28;20048;-81
2021/08/09 01:16:05;;;;;;;3.90;1.80;;;;;;;;;;5100367;28;20060;-82
2021/08/09 01:18:35;;;;;;;2.53;1.45;;;;;;;;;;5105802;28;20078;-83
2021/08/09 01:21:02;;;;;;;2.83;1.55;;;;;;;;;;5103393;28;20044;-83
2021/08/09 01:23:41;;;;;;;3.03;1.70;;;;;;;;;;5102664;28;20040;-82
2021/08/09 01:26:13;;;;;;;4.53;1.85;;;;;;;;;;5102622;28;20050;-82
2021/08/09 01:28:43;;;;;;;2.85;1.48;;;;;;;;;;5103527;28;20052;-82
2021/08/09 01:31:09;;;;;;;2.05;1.30;;;;;;;;;;5103434;28;20063;-80
2021/08/09 01:33:39;;;;;;;3.33;1.60;;;;;;;;;;5105475;28;20096;-81
2021/08/09 01:36:08;;;;;;;3.83;1.60;;;;;;;;;;5119331;28;20032;-81
2021/08/09 01:38:37;;;;;;;3.20;1.50;;;;;;;;;;5120210;28;20032;-81
2021/08/09 01:41:06;;;;;;;3.30;1.58;;;;;;;;;;5120158;28;20032;-80
2021/08/09 01:43:35;;;;;;;3.17;1.75;;;;;;;;;;5119990;28;20068;-82
2021/08/09 01:46:04;;;;;;;4.40;1.40;;;;;;;;;;5118728;28;20061;-82
2021/08/09 01:48:31;;;;;;;4.75;1.60;;;;;;;;;;5118811;28;20105;-81
2021/08/09 01:50:59;;;;;;;2.75;1.50;;;;;;;;;;5119127;28;20062;-82
2021/08/09 01:53:26;;;;;;;2.83;1.45;;;;;;;;;;5119056;28;20062;-81
2021/08/09 01:55:54;;;;;;;3.15;1.70;;;;;;;;;;5118919;28;20055;-81
2021/08/09 01:58:21;;;;;;;3.08;1.48;;;;;;;;;;5118961;28;20074;-81
2021/08/09 02:00:47;;;;;;;3.78;1.77;;;;;;;;;;5118203;28;20036;-81
2021/08/09 02:03:16;;;;;;;4.60;1.38;;;;;;;;;;5115740;28;20047;-81
2021/08/09 02:05:42;;;;;;;4.20;1.77;;;;;;;;;;5098239;28;20079;-81
2021/08/09 02:08:13;;;;;;;3.00;1.38;;;;;;;;;;5098583;28;20051;-80
2021/08/09 02:10:40;;;;;;;3.00;1.70;;;;;;;;;;5098508;28;20067;-80
2021/08/09 02:13:10;;;;;;;3.55;1.45;;;;;;;;;;5101474;22;20036;-77
2021/08/09 02:15:56;;;;;;;3.60;1.55;;;;;;;;;;5081474;28;20080;-77
2021/08/09 02:18:31;;;;;;;3.40;1.73;;;;;;;;;;5081772;28;20079;-77
2021/08/09 02:21:00;;;;;;;3.30;1.58;;;;;;;;;;5081792;28;20053;-77
2021/08/09 02:23:36;;;;;;;3.13;1.92;;;;;;;;;;5082033;28;20070;-76
2021/08/09 02:26:04;;;;;;;2.78;1.50;;;;;;;;;;5081602;28;20044;-77
2021/08/09 02:28:31;;;;;;;2.67;1.70;;;;;;;;;;5082504;28;20460;-76
2021/08/09 02:31:03;;;;;;;2.67;1.35;;;;;;;;;;5082019;28;20057;-77
2021/08/09 02:33:32;;;;;;;3.55;1.30;;;;;;;;;;5081822;28;20040;-77
2021/08/09 02:36:01;;;;;;;2.97;1.77;;;;;;;;;;5081321;28;20098;-77
2021/08/09 02:38:28;;;;;;;3.88;1.40;;;;;;;;;;5081709;28;20131;-76
2021/08/09 02:40:55;;;;;;;3.20;1.40;;;;;;;;;;5089069;28;20049;-75
2021/08/09 02:43:22;;;;;;;3.00;1.45;;;;;;;;;;5089572;28;20052;-76
2021/08/09 02:45:49;;;;;;;1.83;1.15;;;;;;;;;;5088727;28;20497;-76
2021/08/09 02:48:18;;;;;;;2.35;1.25;;;;;;;;;;5091366;28;20052;-75
2021/08/09 02:50:48;;;;;;;2.13;1.30;;;;;;;;;;5086222;28;20617;-77
2021/08/09 02:53:18;;;;;;;2.67;1.38;;;;;;;;;;5082936;28;20094;-78
2021/08/09 02:55:46;;;;;;;2.67;1.20;;;;;;;;;;5081182;28;20546;-78
2021/08/09 02:58:13;;;;;;;2.20;1.30;;;;;;;;;;5086310;28;20066;-75
2021/08/09 03:00:40;;;;;;;2.75;1.50;;;;;;;;;;5089908;28;20086;-76
2021/08/09 03:03:07;;;;;;;3.20;1.20;;;;;;;;;;5081725;28;20490;-77
2021/08/09 03:05:35;;;;;;;2.88;1.75;;;;;;;;;;5080921;28;20464;-77
2021/08/09 03:08:04;;;;;;;3.53;1.38;;;;;;;;;;5083321;28;20045;-75
2021/08/09 03:10:31;;;;;;;2.35;1.40;;;;;;;;;;5093070;28;20044;-75
2021/08/09 03:12:58;;;;;;;4.00;1.90;;;;;;;;;;5083381;28;20060;-78
2021/08/09 03:15:26;;;;;;;3.22;1.70;;;;;;;;;;5080802;28;20128;-77
2021/08/09 03:17:53;;;;;;;2.83;1.35;;;;;;;;;;5081389;28;20446;-77
2021/08/09 03:20:20;;;;;;;3.20;1.80;;;;;;;;;;5081078;28;20090;-77
2021/08/09 03:22:46;;;;;;;3.03;1.50;;;;;;;;;;5081371;28;20406;-78
2021/08/09 03:25:15;;;;;;;2.38;1.42;;;;;;;;;;5080866;28;20459;-77
2021/08/09 03:27:41;;;;;;;4.63;1.20;;;;;;;;;;5079593;28;20102;-78
2021/08/09 03:30:10;;;;;;;3.20;1.35;;;;;;;;;;5077757;28;20052;-76
2021/08/09 03:32:36;;;;;;;3.13;1.30;;;;;;;;;;5076697;28;20107;-76
2021/08/09 03:35:04;;;;;;;3.83;1.45;;;;;;;;;;5076364;28;20048;-77
2021/08/09 03:37:31;;;;;;;2.30;1.20;;;;;;;;;;5077473;28;20044;-76
2021/08/09 03:39:58;;;;;;;3.50;1.40;;;;;;;;;;5077638;28;20045;-78
2021/08/09 03:42:26;;;;;;;4.03;1.30;;;;;;;;;;5077671;28;20090;-78
2021/08/09 03:44:53;;;;;;;3.47;1.67;;;;;;;;;;5077137;28;20044;-77
2021/08/09 03:47:20;;;;;;;4.40;1.48;;;;;;;;;;5076963;28;20114;-78
2021/08/09 03:49:47;;;;;;;2.60;1.30;;;;;;;;;;5077366;28;20052;-78
2021/08/09 03:52:13;;;;;;;3.05;1.50;;;;;;;;;;5077514;28;20052;-77
2021/08/09 03:54:40;;;;;;;3.17;1.45;;;;;;;;;;5076582;28;20383;-78
2021/08/09 03:57:07;;;;;;;2.28;1.40;;;;;;;;;;5077234;28;20049;-77
2021/08/09 03:59:35;;;;;;;3.83;1.50;;;;;;;;;;5077078;28;20044;-78
2021/08/09 04:02:02;;;;;;;3.17;1.45;;;;;;;;;;5076404;28;20045;-77
2021/08/09 04:04:29;;;;;;;3.40;1.40;;;;;;;;;;5077205;28;20053;-78
2021/08/09 04:06:55;;;;;;;4.32;1.60;;;;;;;;;;5076095;28;20102;-76
2021/08/09 04:09:22;;;;;;;2.58;1.52;;;;;;;;;;5077081;28;20048;-77
2021/08/09 04:11:49;;;;;;;2.67;1.33;;;;;;;;;;5077616;28;20048;-77
2021/08/09 04:14:16;;;;;;;5.22;3.13;;;;;;;;;;5077661;28;20049;-76
2021/08/09 04:16:44;;;;;;;3.75;1.90;;;;;;;;;;5076454;28;20110;-77
2021/08/09 04:19:11;;;;;;;3.70;1.42;;;;;;;;;;5077050;28;20045;-77
2021/08/09 04:21:37;;;;;;;3.40;1.38;;;;;;;;;;5076927;28;20113;-78
2021/08/09 04:24:05;;;;;;;2.95;1.30;;;;;;;;;;5076154;28;20040;-77
2021/08/09 04:26:32;;;;;;;3.28;1.65;;;;;;;;;;5075867;28;20045;-78
2021/08/09 04:28:59;;;;;;;2.92;1.40;;;;;;;;;;5075911;28;20040;-77
2021/08/09 04:31:26;;;;;;;3.95;1.50;;;;;;;;;;5076336;28;20049;-79
2021/08/09 04:33:54;;;;;;;3.58;1.63;;;;;;;;;;5076034;28;20049;-77
2021/08/09 04:36:21;;;;;;;3.42;1.80;;;;;;;;;;5078981;28;20090;-76
2021/08/09 04:38:47;;;;;;;2.67;1.50;;;;;;;;;;5075916;28;20055;-77
2021/08/09 04:41:14;;;;;;;2.45;1.42;;;;;;;;;;5076438;28;20041;-78
2021/08/09 04:43:41;;;;;;;3.35;1.80;;;;;;;;;;5075677;28;20049;-77
2021/08/09 04:46:08;;;;;;;3.22;1.30;;;;;;;;;;5075350;28;20441;-78
2021/08/09 04:48:36;;;;;;;3.58;1.80;;;;;;;;;;5076086;28;20153;-78
2021/08/09 04:51:04;;;;;;;4.13;1.90;;;;;;;;;;5076357;28;20489;-78
2021/08/09 04:53:32;;;;;;;2.65;1.55;;;;;;;;;;5075692;28;20465;-78
2021/08/09 04:55:58;;;;;;;3.33;1.48;;;;;;;;;;5075069;28;20052;-78
2021/08/09 04:58:25;;;;;;;4.60;1.85;;;;;;;;;;5075303;28;20094;-75
2021/08/09 05:00:52;;;;;;;4.10;1.80;;;;;;;;;;5075886;28;20535;-77
2021/08/09 05:03:19;;;;;;;2.58;1.63;;;;;;;;;;5075364;28;20383;-78
2021/08/09 05:05:46;;;;;;;5.75;2.20;;;;;;;;;;5074899;28;20055;-77
2021/08/09 05:08:15;;;;;;;7.05;2.40;;;;;;;;;;5075755;28;20053;-78
2021/08/09 05:10:42;;;;;;;3.88;1.90;;;;;;;;;;5076091;28;20090;-77
2021/08/09 05:13:09;;;;;;;4.72;1.70;;;;;;;;;;5076296;28;20098;-78
2021/08/09 05:15:38;;;;;;;3.65;2.17;;;;;;;;;;5076114;28;20041;-78
2021/08/09 05:18:05;;;;;;;5.30;2.10;;;;;;;;;;5077145;28;20044;-78
2021/08/09 05:20:31;;;;;;;6.07;1.98;;;;;;;;;;5075659;28;20051;-76
2021/08/09 05:22:58;;;;;;;5.38;2.45;;;;;;;;;;5087444;28;20082;-76
2021/08/09 05:25:27;;;;;;;5.18;2.30;;;;;;;;;;5083369;28;20040;-78
2021/08/09 05:27:54;;;;;;;4.25;1.67;;;;;;;;;;5076481;28;20484;-78
2021/08/09 05:30:21;;;;;;;4.10;1.85;;;;;;;;;;5075373;28;20109;-79
2021/08/09 05:32:47;;;;;;;3.92;1.85;;;;;;;;;;5075669;28;20044;-78
2021/08/09 05:35:14;;;;;;;3.58;1.92;;;;;;;;;;5085696;28;20067;-77
2021/08/09 05:37:41;;;;;;;3.63;1.90;;;;;;;;;;5082019;28;20048;-75
2021/08/09 05:40:09;;;;;;;3.45;1.90;;;;;;;;;;5081646;28;20048;-78
2021/08/09 05:42:37;;;;;;;4.95;2.08;;;;;;;;;;5075939;28;20052;-78
2021/08/09 05:45:05;;;;;;;3.80;1.95;;;;;;;;;;5089458;28;20052;-76
2021/08/09 05:47:32;;;;;;;3.35;1.90;;;;;;;;;;5089537;28;20052;-77
2021/08/09 05:49:59;;;;;;;3.40;1.98;;;;;;;;;;5092362;28;20044;-76
2021/08/09 05:52:27;;;;;;;4.18;2.00;;;;;;;;;;5084001;28;20078;-78
2021/08/09 05:54:54;;;;;;;3.78;1.95;;;;;;;;;;5079563;28;20459;-78
2021/08/09 05:57:21;;;;;;;4.22;1.90;;;;;;;;;;5080080;28;20459;-78
2021/08/09 05:59:50;;;;;;;5.18;1.98;;;;;;;;;;5079018;28;20044;-79
2021/08/09 06:02:17;;;;;;;3.80;2.20;;;;;;;;;;5077693;28;20040;-78
2021/08/09 06:04:44;;;;;;;3.85;1.50;;;;;;;;;;5077453;28;20055;-77
2021/08/09 06:07:14;;;;;;;4.10;1.70;;;;;;;;;;5077981;28;20053;-78
2021/08/09 06:09:41;;;;;;;;;;;;;;;;;;5078570;28;20044;-78
2021/08/09 06:12:08;;;;;;;3.28;1.42;;;;;;;;;;5078149;28;19981;-78
2021/08/09 06:14:35;;;;;;;3.42;1.70;;;;;;;;;;5077489;28;20173;-77
2021/08/09 06:17:04;;;;;;;3.40;1.70;;;;;;;;;;5077850;28;20044;-77
2021/08/09 06:19:33;;;;;;;3.28;2.08;;;;;;;;;;5077529;28;20056;-79
2021/08/09 06:22:00;;;;;;;3.40;1.90;;;;;;;;;;5078033;28;20071;-76
2021/08/09 06:24:27;;;;;;;4.95;1.75;;;;;;;;;;5077759;28;20055;-78
2021/08/09 06:26:54;;;;;;;3.28;1.48;;;;;;;;;;5077365;28;20086;-78
2021/08/09 06:29:21;;;;;;;4.75;2.35;;;;;;;;;;5082799;28;20398;-76
2021/08/09 06:31:47;;;;;;;4.78;2.08;;;;;;;;;;5081200;28;20045;-79
2021/08/09 06:34:15;;;;;;;4.03;1.67;;;;;;;;;;5077550;28;20049;-79
2021/08/09 06:36:42;;;;;;;4.63;1.80;;;;;;;;;;5076936;28;20046;-79
2021/08/09 06:39:10;;;;;;;3.72;1.88;;;;;;;;;;5077247;28;20055;-78
2021/08/09 06:41:37;;;;;;;3.88;1.75;;;;;;;;;;5077803;28;20041;-78
2021/08/09 06:44:04;;;;;;;3.50;2.00;;;;;;;;;;5077989;28;20040;-78
2021/08/09 06:46:31;;;;;;;3.50;1.90;;;;;;;;;;5077065;28;20053;-78
2021/08/09 06:48:58;;;;;;;3.55;1.70;;;;;;;;;;5077592;28;20052;-78
2021/08/09 06:51:26;;;;;;;2.95;1.35;;;;;;;;;;5078988;28;20057;-78
2021/08/09 06:53:53;;;;;;;5.05;1.65;;;;;;;;;;5078555;28;20048;-78
2021/08/09 06:56:19;;;;;;;3.28;1.45;;;;;;;;;;5077483;28;20113;-76
2021/08/09 06:58:46;;;;;;;3.80;1.50;;;;;;;;;;5078383;28;20106;-78
2021/08/09 07:01:13;;;;;;;5.32;1.90;;;;;;;;;;5074826;28;20151;-78
2021/08/09 07:03:43;;;;;;;4.28;1.48;;;;;;;;;;5078828;28;20055;-78
2021/08/09 07:06:17;;;;;;;3.88;1.67;;;;;;;;;;5077224;28;20060;-77
2021/08/09 07:08:45;;;;;;;4.00;1.70;;;;;;;;;;5076465;28;20055;-77
2021/08/09 07:11:12;;;;;;;2.95;1.48;;;;;;;;;;5075837;28;20044;-76
2021/08/09 07:13:39;;;;;;;3.90;1.60;;;;;;;;;;5075742;28;20056;-77
2021/08/09 07:16:06;;;;;;;6.15;1.70;;;;;;;;;;5074998;28;20044;-78
2021/08/09 07:18:33;;;;;;;4.40;1.80;;;;;;;;;;5077230;28;20041;-76
2021/08/09 07:21:00;;;;;;;4.40;1.80;;;;;;;;;;5077634;28;20044;-77
2021/08/09 07:23:27;;;;;;;4.63;2.30;;;;;;;;;;5075897;28;20053;-77
2021/08/09 07:25:55;;;;;;;5.07;2.13;;;;;;;;;;5075366;28;20041;-78
2021/08/09 07:28:22;;;;;;;2.97;1.52;;;;;;;;;;5076031;28;20595;-77
2021/08/09 07:30:49;;;;;;;3.25;1.90;;;;;;;;;;5075988;28;20063;-76
2021/08/09 07:33:16;;;;;;;3.45;1.52;;;;;;;;;;5076082;28;20044;-78
2021/08/09 07:35:43;;;;;;;5.30;3.10;;;;;;;;;;5075636;28;20614;-78
2021/08/09 07:38:09;;;;;;;4.63;2.15;;;;;;;;;;5082436;28;20052;-78
2021/08/09 07:40:36;;;;;;;4.82;2.55;;;;;;;;;;5079161;28;20110;-77
2021/08/09 07:43:05;;;;;;;7.40;4.93;;;;;;;;;;5076546;28;20048;-74
2021/08/09 07:45:31;;;;;;;5.15;2.70;;;;;;;;;;5083067;28;20049;-75
2021/08/09 07:47:58;;;;;;;3.90;2.08;;;;;;;;;;5084834;28;20110;-77
2021/08/09 07:50:25;;;;;;;3.92;1.48;;;;;;;;;;5075684;28;20056;-75
2021/08/09 07:52:52;;;;;;;3.55;1.58;;;;;;;;;;5074089;28;20439;-77
2021/08/09 07:55:18;;;;;;;5.30;2.20;;;;;;;;;;5073972;28;20467;-77
2021/08/09 07:57:45;;;;;;;3.08;1.65;;;;;;;;;;5076946;28;20040;-76
2021/08/09 08:00:15;;;;;;;5.45;2.35;;;;;;;;;;5084059;28;20122;-75
2021/08/09 08:02:42;;;;;;;5.35;2.83;;;;;;;;;;5075993;28;20453;-78
2021/08/09 08:05:10;;;;;;;6.80;4.88;;;;;;;;;;5075141;28;20090;-78
2021/08/09 08:07:37;;;;;;;4.18;1.80;;;;;;;;;;5074753;28;20122;-78
2021/08/09 08:10:04;;;;;;;3.55;1.90;;;;;;;;;;5074960;28;20052;-78
2021/08/09 08:12:31;;;;;;;4.85;2.50;;;;;;;;;;5087089;22;20257;-82
2021/08/09 08:14:57;;;;;;;6.07;2.50;;;;;;;;;;5079790;28;20059;-79
2021/08/09 08:17:26;;;;;;;5.28;1.95;;;;;;;;;;5077947;28;20088;-84
2021/08/09 08:19:53;;;;;;;4.25;1.60;;;;;;;;;;5076514;28;20044;-82
2021/08/09 08:22:19;;;;;;;2.70;1.35;;;;;;;;;;5074766;28;20040;-78
2021/08/09 08:24:46;;;;;;;2.40;1.67;;;;;;;;;;5073751;28;20045;-81
2021/08/09 08:27:13;;;;;;;3.05;1.40;;;;;;;;;;5074406;28;20052;-81
2021/08/09 08:29:40;;;;;;;3.53;1.65;;;;;;;;;;5074135;28;20449;-81
2021/08/09 08:32:07;;;;;;;4.18;1.70;;;;;;;;;;5074992;28;20092;-80
2021/08/09 08:34:36;;;;;;;3.53;1.58;;;;;;;;;;5075052;28;20044;-80
2021/08/09 08:37:03;;;;;;;3.75;1.60;;;;;;;;;;5075589;28;20049;-80
2021/08/09 08:39:30;;;;;;;3.65;1.63;;;;;;;;;;5077142;28;20055;-81
2021/08/09 08:41:57;;;;;;;4.00;1.70;;;;;;;;;;5076838;28;20051;-78
2021/08/09 08:44:24;;;;;;;4.07;1.58;;;;;;;;;;5081200;28;20091;-79
2021/08/09 08:49:33;;;;;;;3.15;1.70;;;;;;;;;;5078669;28;20540;-82
2021/08/09 08:52:01;;;;;;;4.57;1.83;;;;;;;;;;5076695;28;20040;-82
2021/08/09 08:54:28;;;;;;;2.80;1.40;;;;;;;;;;5076035;28;20056;-80
2021/08/09 08:56:55;;;;;;;3.97;2.20;;;;;;;;;;5077329;28;20048;-82
2021/08/09 08:59:22;;;;;;;4.15;1.70;;;;;;;;;;5075659;28;20053;-82
2021/08/09 09:01:51;;;;;;;2.70;1.27;;;;;;;;;;5076359;28;20053;-81
2021/08/09 09:04:26;;;;;;;4.43;1.90;;;;;;;;;;5078983;28;20135;-82
2021/08/09 09:07:02;;;;;;;4.22;1.67;;;;;;;;;;5078973;28;20040;-81
2021/08/09 09:09:30;;;;;;;3.90;1.80;;;;;;;;;;5078707;28;20056;-80
2021/08/09 09:11:57;;;;;;;6.40;2.38;;;;;;;;;;5084013;28;20048;-80
2021/08/09 09:14:26;;;;;;;3.50;1.55;;;;;;;;;;5100787;28;20479;-79
2021/08/09 09:16:53;;;;;;;4.70;1.77;;;;;;;;;;5097073;28;20048;-79
2021/08/09 09:19:35;;;;;;;3.17;1.50;;;;;;;;;;5101420;28;20051;-80
2021/08/09 09:22:05;;;;;;;3.85;1.73;;;;;;;;;;5103282;28;20047;-80
2021/08/09 09:24:32;;;;;;;3.75;1.70;;;;;;;;;;5091820;22;20082;-80
2021/08/09 09:27:02;;;;;;;4.18;2.03;;;;;;;;;;5082823;28;20109;-80
2021/08/09 09:29:34;;;;;;;3.70;1.42;;;;;;;;;;5083000;28;20164;-80
2021/08/09 09:32:13;;;;;;;3.67;1.60;;;;;;;;;;5082547;28;20063;-80
2021/08/09 09:34:47;;;;;;;4.28;2.25;;;;;;;;;;5081971;28;20044;-81
2021/08/09 09:37:23;;;;;;;2.90;1.65;;;;;;;;;;5082835;28;20072;-80
2021/08/09 09:39:49;;;;;;;5.13;1.73;;;;;;;;;;5082683;28;20104;-81
2021/08/09 09:42:16;;;;;;;3.30;1.48;;;;;;;;;;5076527;28;20045;-81
2021/08/09 09:45:18;;;;;;;3.13;1.60;;;;;;;;;;5167364;22;20074;-81
2021/08/09 09:48:20;;;;;;;2.17;1.48;;;;;;;;;;5039494;28;20053;-81
2021/08/09 09:51:17;;;;;;;4.25;1.45;;;;;;;;;;4978648;28;20062;-81
2021/08/09 09:53:48;;;;;;;4.13;1.35;;;;;;;;;;4962723;28;20047;-81
2021/08/09 09:56:15;;;;;;;3.38;1.40;;;;;;;;;;5006061;28;20491;-81
2021/08/09 09:58:42;;;;;;;3.83;1.65;;;;;;;;;;5047334;28;20105;-81
2021/08/09 10:01:10;;;;;;;3.85;1.67;;;;;;;;;;5094235;28;20047;-80
2021/08/09 10:03:38;;;;;;;3.22;1.63;;;;;;;;;;5082222;28;20040;-81
2021/08/09 10:06:06;;;;;;;2.75;1.60;;;;;;;;;;5080623;28;20049;-80
2021/08/09 10:08:34;;;;;;;4.72;2.00;;;;;;;;;;5081067;28;20044;-79
2021/08/09 10:11:05;;;;;;;5.03;1.70;;;;;;;;;;5087483;28;20053;-80
2021/08/09 10:13:33;;;;;;;3.35;1.40;;;;;;;;;;5101252;28;20040;-80
2021/08/09 10:16:04;;;;;;;6.93;1.83;;;;;;;;;;5100699;28;20055;-80
2021/08/09 10:18:33;;;;;;;4.28;1.48;;;;;;;;;;5104027;28;20078;-80
2021/08/09 10:21:02;;;;;;;2.97;1.48;;;;;;;;;;5104860;28;20051;-81
2021/08/09 10:23:44;;;;;;;3.15;1.48;;;;;;;;;;5101363;28;20048;-80
2021/08/09 10:26:14;;;;;;;3.08;1.38;;;;;;;;;;5097790;28;20071;-80
2021/08/09 10:29:03;;;;;;;2.30;1.20;;;;;;;;;;5101901;28;20044;-80
2021/08/09 10:31:33;;;;;;;3.25;1.58;;;;;;;;;;5101853;28;20129;-81
2021/08/09 10:34:01;;;;;;;3.45;1.42;;;;;;;;;;5101937;28;20094;-80
2021/08/09 10:36:27;;;;;;;4.85;1.80;;;;;;;;;;5101300;28;20048;-80
2021/08/09 10:38:58;;;;;;;3.28;1.40;;;;;;;;;;5101779;28;20048;-80
2021/08/09 10:41:35;;;;;;;3.08;1.52;;;;;;;;;;5100546;28;20043;-80
2021/08/09 10:44:22;;;;;;;2.97;1.25;;;;;;;;;;5101128;28;20051;-80
2021/08/09 10:46:50;;;;;;;4.13;1.30;;;;;;;;;;5088752;28;20097;-80
2021/08/09 10:49:56;;;;;;;3.28;1.40;;;;;;;;;;5085914;28;20082;-80
2021/08/09 10:52:45;;;;;;;2.22;1.30;;;;;;;;;;5088935;28;20051;-80
2021/08/09 10:55:48;;;;;;;3.40;1.30;;;;;;;;;;5090591;28;20048;-80
2021/08/09 10:58:53;;;;;;;4.32;1.63;;;;;;;;;;5090414;28;20055;-81
2021/08/09 11:01:23;;;;;;;2.75;1.65;;;;;;;;;;5084997;28;20044;-82
2021/08/09 11:04:17;;;;;;;3.42;1.40;;;;;;;;;;5084191;28;20544;-84
2021/08/09 11:06:53;;;;;;;3.35;1.48;;;;;;;;;;5084090;28;20082;-81
2021/08/09 11:09:44;;;;;;;3.50;1.60;;;;;;;;;;5082944;28;20419;-83
2021/08/09 11:12:22;;;;;;;3.22;1.42;;;;;;;;;;5098028;28;20055;-79
2021/08/09 11:15:22;;;;;;;2.58;1.52;;;;;;;;;;5093791;28;20044;-83
2021/08/09 11:17:57;;;;;;;3.72;1.88;;;;;;;;;;5082889;28;20064;-83
2021/08/09 11:20:27;;;;;;;6.28;1.90;;;;;;;;;;5089765;28;20059;-83
2021/08/09 11:23:07;;;;;;;3.05;1.60;;;;;;;;;;5089199;28;20036;-83
2021/08/09 11:25:36;;;;;;;3.35;1.63;;;;;;;;;;5084687;28;20136;-83
2021/08/09 11:28:08;;;;;;;2.90;1.33;;;;;;;;;;5084862;28;20051;-83
2021/08/09 11:30:49;;;;;;;2.88;1.40;;;;;;;;;;5084820;28;20501;-83
2021/08/09 11:33:30;;;;;;;3.17;1.27;;;;;;;;;;5097357;28;20493;-83
2021/08/09 11:35:59;;;;;;;15.70;3.90;;;;;;;;;;5084945;28;20040;-84
2021/08/09 11:38:27;;;;;;;3.25;1.20;;;;;;;;;;5080943;28;20052;-81
2021/08/09 11:41:00;;;;;;;3.53;1.40;;;;;;;;;;5081170;28;20039;-83
2021/08/09 11:43:28;;;;;;;2.35;1.20;;;;;;;;;;5094908;28;20107;-83
2021/08/09 11:46:03;;;;;;;3.50;1.50;;;;;;;;;;5090065;28;20075;-83
2021/08/09 11:48:30;;;;;;;4.18;1.63;;;;;;;;;;5075013;28;20616;-83
2021/08/09 11:51:00;;;;;;;5.05;2.22;;;;;;;;;;5080752;28;20041;-84
2021/08/09 11:53:27;;;;;;;5.65;1.90;;;;;;;;;;5079005;28;20040;-83
2021/08/09 11:56:14;;;;;;;6.03;2.10;;;;;;;;;;5075506;28;20044;-83
2021/08/09 11:58:42;;;;;;;6.32;1.98;;;;;;;;;;5080385;28;20067;-83
2021/08/09 12:01:19;;;;;;;4.15;1.75;;;;;;;;;;5090089;28;20048;-82
2021/08/09 12:04:00;;;;;;;2.95;1.40;;;;;;;;;;5088215;28;20062;-84
2021/08/09 12:06:28;;;;;;;5.57;1.92;;;;;;;;;;5075292;28;20536;-84
2021/08/09 12:08:56;;;;;;;5.95;2.17;;;;;;;;;;5074142;28;20531;-84
2021/08/09 12:11:28;;;;;;;2.63;1.42;;;;;;;;;;5073949;28;20052;-83
2021/08/09 12:14:09;;;;;;;2.92;1.40;;;;;;;;;;5093003;28;20055;-84
2021/08/09 12:16:51;;;;;;;2.70;1.17;;;;;;;;;;5075041;28;20044;-83
2021/08/09 12:19:20;;;;;;;2.28;1.38;;;;;;;;;;5073362;28;20044;-84
2021/08/09 12:21:48;;;;;;;2.38;1.23;;;;;;;;;;5073797;28;20044;-83
2021/08/09 12:24:17;;;;;;;3.08;1.35;;;;;;;;;;5080356;28;20047;-84
2021/08/09 12:26:45;;;;;;;2.67;1.40;;;;;;;;;;5084750;28;20055;-85
2021/08/09 12:29:18;;;;;;;3.88;1.40;;;;;;;;;;5084316;28;20060;-83
2021/08/09 12:31:49;;;;;;;3.15;1.10;;;;;;;;;;5082462;28;20098;-84
2021/08/09 12:34:21;;;;;;;3.42;1.52;;;;;;;;;;5094812;28;20044;-84
2021/08/09 12:36:49;;;;;;;3.70;1.40;;;;;;;;;;5093885;28;20044;-84
2021/08/09 12:39:37;;;;;;;4.70;1.50;;;;;;;;;;5094074;28;20496;-84
2021/08/09 12:42:20;;;;;;;1.90;1.38;;;;;;;;;;5087919;28;20064;-84
2021/08/09 12:44:49;;;;;;;1.92;1.15;;;;;;;;;;5097590;28;20052;-83
2021/08/09 12:47:16;;;;;;;3.60;1.33;;;;;;;;;;5088826;28;20098;-83
2021/08/09 12:49:45;;;;;;;2.13;1.30;;;;;;;;;;5081519;28;20382;-84
2021/08/09 12:52:12;;;;;;;3.75;1.80;;;;;;;;;;5083061;28;20048;-84
2021/08/09 12:54:41;;;;;;;2.22;1.15;;;;;;;;;;5078099;28;20576;-83
2021/08/09 12:57:08;;;;;;;4.25;1.45;;;;;;;;;;5085087;28;20420;-84
2021/08/09 12:59:40;;;;;;;3.83;1.30;;;;;;;;;;5081617;28;20049;-85
2021/08/09 13:02:11;;;;;;;3.10;1.50;;;;;;;;;;5079775;28;20448;-83
2021/08/09 13:04:44;;;;;;;4.72;1.60;;;;;;;;;;5083088;28;20044;-83
2021/08/09 13:07:14;;;;;;;2.13;1.10;;;;;;;;;;5090988;28;20044;-84
2021/08/09 13:09:41;;;;;;;3.75;1.50;;;;;;;;;;5095147;28;20091;-85
2021/08/09 13:12:08;;;;;;;2.55;1.27;;;;;;;;;;5081728;28;20117;-84
2021/08/09 13:14:35;;;;;;;5.68;1.50;;;;;;;;;;5080067;28;20143;-84
2021/08/09 13:17:03;;;;;;;3.45;1.70;;;;;;;;;;5085711;28;20119;-84
2021/08/09 13:19:30;;;;;;;2.38;1.30;;;;;;;;;;5091762;28;20048;-85
2021/08/09 13:22:00;;;;;;;3.13;1.40;;;;;;;;;;5098788;28;20520;-85
2021/08/09 13:24:29;;;;;;;5.10;1.70;;;;;;;;;;5099752;28;20040;-83
2021/08/09 13:26:58;;;;;;;4.10;1.63;;;;;;;;;;5096066;28;20512;-85
2021/08/09 13:29:25;;;;;;;3.60;1.90;;;;;;;;;;5085442;28;20044;-85
2021/08/09 13:31:52;;;;;;;4.28;1.60;;;;;;;;;;5089556;28;20044;-85
2021/08/09 13:34:22;;;;;;;4.07;1.60;;;;;;;;;;5090835;28;20050;-85
2021/08/09 13:36:48;;;;;;;;;;;;;;;;;;5090931;28;20051;-85
2021/08/09 13:39:17;;;;;;;3.58;1.73;;;;;;;;;;5088881;28;20361;-85
2021/08/09 13:41:46;;;;;;;3.58;1.65;;;;;;;;;;5092599;28;20058;-86
2021/08/09 13:44:13;;;;;;;3.80;1.33;;;;;;;;;;5085135;28;20386;-85
2021/08/09 13:46:40;;;;;;;2.95;1.40;;;;;;;;;;5087172;28;20059;-81
2021/08/09 13:49:07;;;;;;;2.75;1.60;;;;;;;;;;5082909;28;20036;-85
2021/08/09 13:51:34;;;;;;;2.42;1.13;;;;;;;;;;5078065;28;20048;-85
2021/08/09 13:54:01;;;;;;;2.90;1.30;;;;;;;;;;5083233;28;20052;-84
2021/08/09 13:56:28;;;;;;;3.55;1.48;;;;;;;;;;5076894;28;20049;-85
2021/08/09 13:58:57;;;;;;;3.58;1.45;;;;;;;;;;5081627;28;20051;-82
2021/08/09 14:01:24;;;;;;;2.67;1.13;;;;;;;;;;5085048;28;20040;-84
2021/08/09 14:03:51;;;;;;;4.13;1.50;;;;;;;;;;5086698;28;20078;-84
2021/08/09 14:06:18;;;;;;;2.50;1.20;;;;;;;;;;5080829;28;20441;-84
2021/08/09 14:08:45;;;;;;;4.65;1.50;;;;;;;;;;5101598;28;20048;-86
2021/08/09 14:11:18;;;;;;;3.47;1.30;;;;;;;;;;5105063;28;20044;-84
2021/08/09 14:13:45;;;;;;;9.45;6.95;;;;;;;;;;5086907;28;20045;-86
2021/08/09 14:16:13;;;;;;;7.82;3.60;;;;;;;;;;5086391;22;20045;-76
2021/08/09 14:18:40;;;;;;;3.10;1.40;;;;;;;;;;5060834;28;20045;-77
2021/08/09 14:21:07;;;;;;;1.73;1.10;;;;;;;;;;5063456;28;20098;-76
2021/08/09 14:23:34;;;;;;;4.65;2.67;;;;;;;;;;5052589;28;20099;-77
2021/08/09 14:26:03;;;;;;;3.20;1.30;;;;;;;;;;5052110;28;20120;-76
2021/08/09 14:28:29;;;;;;;2.45;1.40;;;;;;;;;;5070757;28;20053;-76
2021/08/09 14:30:56;;;;;;;5.85;4.03;;;;;;;;;;5076373;28;20110;-76
2021/08/09 14:33:24;;;;;;;5.13;3.30;;;;;;;;;;5076213;28;20132;-76
2021/08/09 14:35:51;;;;;;;2.80;1.45;;;;;;;;;;5062745;28;20041;-76
2021/08/09 14:38:18;;;;;;;2.83;1.30;;;;;;;;;;5071859;28;20052;-76
2021/08/09 14:40:45;;;;;;;3.03;1.55;;;;;;;;;;5061372;28;20102;-79
2021/08/09 14:43:11;;;;;;;3.60;1.67;;;;;;;;;;5052532;28;20523;-77
2021/08/09 14:45:40;;;;;;;3.67;1.60;;;;;;;;;;5057777;28;20045;-76
2021/08/09 14:48:09;;;;;;;3.55;1.73;;;;;;;;;;5071880;28;20094;-76
2021/08/09 14:50:38;;;;;;;3.40;1.73;;;;;;;;;;5060856;28;20533;-76
2021/08/09 14:53:04;;;;;;;4.60;1.92;;;;;;;;;;5068615;28;20671;-76
2021/08/09 14:55:32;;;;;;;6.18;4.03;;;;;;;;;;5070774;28;20114;-76
2021/08/09 14:57:59;;;;;;;4.78;2.20;;;;;;;;;;5071913;28;20387;-75
2021/08/09 15:00:26;;;;;;;4.25;1.55;;;;;;;;;;5071429;28;20048;-75
2021/08/09 15:02:52;;;;;;;3.13;2.03;;;;;;;;;;5064461;28;20399;-76